createdAt,value
2023-05-14T00:01:04.255Z,12.00
2023-05-14T00:03:31.291Z,12.00
2023-05-14T00:05:58.403Z,11.90
2023-05-14T00:08:25.263Z,11.90
2023-05-14T00:10:52.454Z,11.80
2023-05-14T00:13:19.174Z,11.90
2023-05-14T00:15:45.960Z,11.80
2023-05-14T00:18:12.747Z,11.80
2023-05-14T00:20:39.593Z,11.70
2023-05-14T00:23:06.294Z,11.80
2023-05-14T00:25:32.993Z,11.80
2023-05-14T00:27:59.685Z,11.80
2023-05-14T00:30:26.527Z,11.80
2023-05-14T00:32:53.482Z,11.90
2023-05-14T00:35:21.516Z,11.80
2023-05-14T00:37:48.268Z,11.80
2023-05-14T00:40:15.547Z,11.70
2023-05-14T00:42:42.379Z,11.70
2023-05-14T00:45:09.551Z,11.70
2023-05-14T00:47:36.589Z,11.60
2023-05-14T00:50:04.665Z,11.60
2023-05-14T00:52:34.746Z,11.60
2023-05-14T00:55:04.628Z,11.60
2023-05-14T00:57:31.599Z,11.60
2023-05-14T00:59:59.521Z,11.60
2023-05-14T01:02:26.468Z,11.60
2023-05-14T01:04:53.891Z,11.70
2023-05-14T01:07:23.356Z,11.70
2023-05-14T01:10:06.090Z,11.80
2023-05-14T01:13:09.421Z,11.90
2023-05-14T01:15:38.529Z,11.90
2023-05-14T01:18:09.584Z,12.00
2023-05-14T01:20:36.891Z,11.90
2023-05-14T01:23:03.929Z,12.00
2023-05-14T01:25:32.115Z,11.90
2023-05-14T01:28:04.549Z,11.70
2023-05-14T01:30:45.580Z,11.70
2023-05-14T01:33:18.315Z,11.80
2023-05-14T01:35:45.528Z,11.80
2023-05-14T01:38:14.895Z,11.80
2023-05-14T01:40:42.381Z,11.70
2023-05-14T01:43:09.223Z,11.80
2023-05-14T01:45:37.217Z,11.70
2023-05-14T01:48:05.414Z,11.70
2023-05-14T01:50:32.199Z,11.70
2023-05-14T01:52:59.008Z,11.70
2023-05-14T01:55:25.811Z,11.70
2023-05-14T01:57:53.237Z,11.70
2023-05-14T02:00:21.015Z,11.70
2023-05-14T02:02:47.868Z,11.80
2023-05-14T02:05:14.721Z,11.80
2023-05-14T02:07:41.652Z,11.90
2023-05-14T02:10:08.891Z,11.90
2023-05-14T02:12:35.724Z,12.00
2023-05-14T02:15:03.800Z,11.90
2023-05-14T02:17:30.636Z,11.90
2023-05-14T02:19:57.407Z,12.00
2023-05-14T02:22:24.206Z,12.00
2023-05-14T02:24:51.458Z,12.10
2023-05-14T02:27:18.340Z,12.20
2023-05-14T02:29:45.212Z,12.20
2023-05-14T02:32:11.949Z,12.20
2023-05-14T02:34:38.769Z,12.10
2023-05-14T02:37:05.609Z,11.90
2023-05-14T02:39:32.384Z,11.90
2023-05-14T02:41:59.207Z,12.00
2023-05-14T02:44:25.947Z,12.00
2023-05-14T02:46:52.863Z,12.10
2023-05-14T02:49:19.694Z,12.20
2023-05-14T02:51:46.425Z,12.00
2023-05-14T02:54:13.112Z,12.00
2023-05-14T02:56:39.863Z,11.80
2023-05-14T02:59:06.686Z,11.70
2023-05-14T03:01:33.952Z,11.70
2023-05-14T03:04:01.102Z,11.70
2023-05-14T03:06:27.850Z,11.60
2023-05-14T03:08:54.571Z,11.50
2023-05-14T03:11:21.719Z,11.40
2023-05-14T03:13:48.431Z,11.40
2023-05-14T03:16:16.085Z,11.40
2023-05-14T03:18:42.843Z,11.40
2023-05-14T03:21:09.658Z,11.30
2023-05-14T03:23:36.394Z,11.30
2023-05-14T03:26:03.837Z,11.40
2023-05-14T03:28:30.986Z,11.30
2023-05-14T03:30:57.971Z,11.30
2023-05-14T03:33:24.838Z,11.30
2023-05-14T03:35:51.926Z,11.30
2023-05-14T03:38:18.740Z,11.40
2023-05-14T03:40:45.864Z,11.40
2023-05-14T03:43:12.551Z,11.40
2023-05-14T03:45:39.858Z,11.30
2023-05-14T03:48:06.848Z,11.30
2023-05-14T03:50:33.778Z,11.20
2023-05-14T03:53:00.608Z,11.10
2023-05-14T03:55:27.580Z,11.10
2023-05-14T03:57:54.317Z,11.20
2023-05-14T04:00:21.389Z,11.10
2023-05-14T04:02:48.430Z,11.20
2023-05-14T04:05:15.357Z,11.20
2023-05-14T04:07:42.054Z,11.20
2023-05-14T04:10:09.355Z,11.20
2023-05-14T04:12:36.208Z,11.20
2023-05-14T04:15:03.047Z,11.10
2023-05-14T04:17:29.899Z,11.10
2023-05-14T04:19:56.588Z,11.10
2023-05-14T04:22:23.304Z,11.00
2023-05-14T04:24:49.956Z,11.00
2023-05-14T04:27:22.911Z,11.00
2023-05-14T04:29:50.421Z,11.00
2023-05-14T04:32:18.150Z,11.10
2023-05-14T04:34:45.061Z,11.10
2023-05-14T04:37:11.860Z,11.10
2023-05-14T04:39:38.790Z,11.20
2023-05-14T04:42:06.903Z,11.10
2023-05-14T04:44:34.942Z,11.20
2023-05-14T04:47:02.328Z,11.30
2023-05-14T04:49:30.354Z,11.50
2023-05-14T04:51:57.153Z,11.50
2023-05-14T04:54:24.100Z,11.40
2023-05-14T04:56:51.233Z,11.50
2023-05-14T04:59:18.015Z,11.50
2023-05-14T05:01:45.883Z,11.60
2023-05-14T05:04:12.996Z,11.50
2023-05-14T05:06:39.861Z,11.60
2023-05-14T05:09:06.655Z,11.60
2023-05-14T05:11:33.331Z,11.50
2023-05-14T05:14:00.071Z,11.40
2023-05-14T05:16:26.869Z,11.40
2023-05-14T05:18:53.742Z,11.30
2023-05-14T05:21:20.548Z,11.30
2023-05-14T05:23:47.252Z,11.40
2023-05-14T05:26:14.004Z,11.50
2023-05-14T05:28:40.843Z,11.50
2023-05-14T05:31:08.069Z,11.50
2023-05-14T05:33:35.662Z,11.50
2023-05-14T05:36:02.847Z,11.50
2023-05-14T05:38:29.646Z,11.60
2023-05-14T05:40:56.485Z,11.50
2023-05-14T05:43:23.220Z,11.50
2023-05-14T05:45:49.895Z,11.50
2023-05-14T05:48:16.624Z,11.50
2023-05-14T05:50:44.883Z,11.50
2023-05-14T05:53:12.449Z,11.70
2023-05-14T05:55:40.867Z,11.60
2023-05-14T05:58:07.575Z,11.60
2023-05-14T06:00:34.398Z,11.50
2023-05-14T06:03:01.365Z,11.60
2023-05-14T06:05:28.309Z,11.70
2023-05-14T06:07:55.048Z,11.60
2023-05-14T06:10:22.182Z,11.50
2023-05-14T06:12:49.021Z,11.50
2023-05-14T06:15:15.895Z,11.40
2023-05-14T06:17:42.677Z,11.40
2023-05-14T06:20:09.969Z,11.40
2023-05-14T06:22:36.773Z,11.40
2023-05-14T06:25:04.388Z,11.50
2023-05-14T06:27:31.098Z,11.50
2023-05-14T06:29:57.882Z,11.50
2023-05-14T06:32:24.734Z,11.60
2023-05-14T06:34:51.447Z,11.60
2023-05-14T06:37:18.156Z,11.60
2023-05-14T06:39:49.958Z,11.70
2023-05-14T06:42:17.427Z,11.70
2023-05-14T06:44:44.951Z,11.80
2023-05-14T06:47:11.720Z,11.70
2023-05-14T06:49:39.050Z,11.90
2023-05-14T06:52:06.394Z,11.80
2023-05-14T06:54:33.135Z,11.80
2023-05-14T06:56:59.880Z,12.00
2023-05-14T06:59:26.623Z,11.90
2023-05-14T07:01:53.335Z,11.80
2023-05-14T07:04:20.066Z,11.70
2023-05-14T07:06:46.744Z,11.70
2023-05-14T07:09:13.412Z,11.60
2023-05-14T07:11:40.209Z,11.70
2023-05-14T07:14:06.917Z,11.70
2023-05-14T07:16:33.668Z,11.70
2023-05-14T07:19:00.443Z,11.60
2023-05-14T07:21:27.868Z,11.50
2023-05-14T07:23:54.548Z,11.50
2023-05-14T07:26:21.471Z,11.50
2023-05-14T07:28:48.165Z,11.50
2023-05-14T07:31:14.869Z,11.60
2023-05-14T07:33:41.609Z,11.60
2023-05-14T07:36:08.912Z,11.50
2023-05-14T07:38:35.782Z,11.50
2023-05-14T07:41:02.862Z,11.40
2023-05-14T07:43:29.564Z,11.40
2023-05-14T07:45:56.574Z,11.50
2023-05-14T07:48:23.416Z,11.40
2023-05-14T07:50:50.292Z,11.40
2023-05-14T07:53:17.003Z,11.40
2023-05-14T07:55:45.722Z,11.50
2023-05-14T07:58:12.417Z,11.40
2023-05-14T08:00:39.182Z,11.40
2023-05-14T08:03:06.075Z,11.40
2023-05-14T08:05:33.064Z,11.40
2023-05-14T08:07:59.849Z,11.30
2023-05-14T08:10:27.077Z,11.40
2023-05-14T08:12:54.067Z,11.40
2023-05-14T08:15:21.065Z,11.40
2023-05-14T08:17:47.806Z,11.40
2023-05-14T08:20:14.550Z,11.50
2023-05-14T08:22:41.406Z,11.40
2023-05-14T08:25:08.466Z,11.40
2023-05-14T08:27:35.212Z,11.60
2023-05-14T08:30:01.944Z,11.60
2023-05-14T08:32:28.818Z,11.90
2023-05-14T08:34:55.558Z,12.20
2023-05-14T08:37:22.291Z,12.00
2023-05-14T08:39:49.195Z,12.00
2023-05-14T08:42:20.303Z,12.00
2023-05-14T08:44:52.609Z,12.00
2023-05-14T08:47:21.972Z,12.10
2023-05-14T08:49:57.943Z,12.10
2023-05-14T08:52:24.895Z,12.10
2023-05-14T08:54:53.991Z,12.20
2023-05-14T08:57:23.749Z,12.40
2023-05-14T08:59:51.399Z,12.50
2023-05-14T09:02:24.407Z,12.60
2023-05-14T09:05:01.484Z,13.00
2023-05-14T09:07:28.577Z,13.40
2023-05-14T09:09:55.791Z,13.70
2023-05-14T09:12:22.854Z,13.90
2023-05-14T09:14:50.370Z,14.10
2023-05-14T09:17:18.241Z,14.10
2023-05-14T09:19:49.103Z,13.70
2023-05-14T09:22:17.625Z,14.00
2023-05-14T09:24:44.857Z,14.10
2023-05-14T09:27:21.398Z,14.30
2023-05-14T09:29:48.599Z,14.10
2023-05-14T09:32:15.544Z,14.50
2023-05-14T09:34:42.451Z,14.60
2023-05-14T09:37:10.043Z,14.70
2023-05-14T09:39:39.830Z,14.40
2023-05-14T09:42:06.837Z,14.40
2023-05-14T09:44:33.759Z,14.30
2023-05-14T09:47:00.904Z,14.20
2023-05-14T09:49:28.501Z,14.10
2023-05-14T09:51:57.084Z,13.90
2023-05-14T09:54:26.110Z,14.00
2023-05-14T09:56:55.031Z,14.30
2023-05-14T09:59:22.440Z,14.20
2023-05-14T10:01:50.931Z,14.00
2023-05-14T10:04:18.241Z,14.10
2023-05-14T10:06:51.259Z,14.20
2023-05-14T10:09:22.132Z,14.10
2023-05-14T10:11:53.434Z,14.20
2023-05-14T10:14:28.976Z,14.40
2023-05-14T10:16:58.960Z,14.50
2023-05-14T10:19:26.516Z,14.60
2023-05-14T10:21:56.679Z,14.20
2023-05-14T10:24:25.972Z,14.10
2023-05-14T10:26:53.392Z,14.20
2023-05-14T10:29:20.129Z,14.00
2023-05-14T10:31:54.681Z,13.80
2023-05-14T10:34:41.518Z,13.70
2023-05-14T10:37:16.180Z,13.60
2023-05-14T10:39:51.501Z,13.70
2023-05-14T10:42:36.116Z,13.70
2023-05-14T10:45:07.548Z,13.70
2023-05-14T10:47:39.280Z,13.80
2023-05-14T10:50:08.299Z,13.90
2023-05-14T10:52:36.108Z,13.90
2023-05-14T10:55:07.721Z,14.10
2023-05-14T10:57:39.113Z,14.20
2023-05-14T11:00:07.790Z,14.40
2023-05-14T11:02:38.720Z,14.60
2023-05-14T11:05:08.204Z,14.70
2023-05-14T11:07:36.244Z,14.70
2023-05-14T11:10:11.575Z,14.70
2023-05-14T11:12:40.908Z,14.70
2023-05-14T11:15:10.070Z,14.70
2023-05-14T11:17:38.381Z,14.60
2023-05-14T11:20:06.730Z,14.60
2023-05-14T11:22:36.198Z,14.80
2023-05-14T11:25:03.424Z,14.80
2023-05-14T11:27:30.888Z,14.80
2023-05-14T11:29:58.177Z,14.70
2023-05-14T11:32:25.844Z,14.70
2023-05-14T11:34:52.906Z,14.80
2023-05-14T11:37:20.312Z,14.90
2023-05-14T11:39:52.203Z,15.20
2023-05-14T11:42:19.965Z,15.60
2023-05-14T11:44:51.997Z,15.70
2023-05-14T11:47:20.731Z,15.80
2023-05-14T11:49:47.920Z,15.80
2023-05-14T11:52:15.998Z,15.60
2023-05-14T11:54:43.965Z,15.80
2023-05-14T11:57:13.412Z,16.10
2023-05-14T11:59:41.011Z,16.20
2023-05-14T12:02:13.228Z,16.20
2023-05-14T12:04:41.623Z,16.20
2023-05-14T12:07:10.821Z,16.30
2023-05-14T12:09:40.147Z,16.40
2023-05-14T12:12:11.849Z,16.00
2023-05-14T12:14:41.611Z,16.10
2023-05-14T12:17:18.588Z,16.30
2023-05-14T12:19:47.530Z,16.40
2023-05-14T12:22:16.951Z,16.40
2023-05-14T12:25:04.256Z,16.20
2023-05-14T12:27:31.093Z,16.10
2023-05-14T12:30:19.104Z,15.90
2023-05-14T12:32:52.146Z,15.80
2023-05-14T12:35:19.160Z,16.10
2023-05-14T12:37:46.072Z,16.30
2023-05-14T12:40:13.320Z,16.30
2023-05-14T12:42:40.205Z,16.40
2023-05-14T12:45:08.646Z,16.50
2023-05-14T12:47:36.909Z,16.70
2023-05-14T12:50:04.813Z,16.80
2023-05-14T12:55:01.741Z,16.30
2023-05-14T12:57:29.905Z,16.30
2023-05-14T12:59:57.397Z,16.50
2023-05-14T13:02:24.103Z,16.40
2023-05-14T13:04:50.866Z,16.30
2023-05-14T13:07:17.657Z,16.30
2023-05-14T13:09:44.433Z,16.40
2023-05-14T13:12:11.218Z,16.50
2023-05-14T13:14:37.897Z,16.80
2023-05-14T13:17:05.418Z,16.80
2023-05-14T13:19:32.302Z,17.10
2023-05-14T13:21:59.131Z,17.20
2023-05-14T13:24:26.170Z,17.10
2023-05-14T13:26:52.885Z,17.00
2023-05-14T13:29:19.610Z,17.10
2023-05-14T13:31:46.534Z,17.50
2023-05-14T13:34:13.323Z,17.40
2023-05-14T13:36:40.759Z,17.50
2023-05-14T13:39:07.588Z,17.70
2023-05-14T13:41:37.972Z,17.80
2023-05-14T13:44:04.921Z,17.70
2023-05-14T13:46:31.860Z,17.90
2023-05-14T13:48:58.647Z,17.70
2023-05-14T13:51:25.504Z,17.40
2023-05-14T13:53:52.207Z,17.10
2023-05-14T13:56:19.327Z,17.10
2023-05-14T13:58:46.076Z,17.20
2023-05-14T14:01:13.102Z,17.00
2023-05-14T14:03:39.898Z,17.00
2023-05-14T14:06:06.716Z,17.10
2023-05-14T14:08:33.616Z,17.00
2023-05-14T14:11:00.453Z,17.10
2023-05-14T14:13:27.825Z,17.10
2023-05-14T14:15:54.649Z,16.80
2023-05-14T14:18:21.563Z,16.90
2023-05-14T14:20:48.566Z,17.10
2023-05-14T14:23:15.425Z,17.20
2023-05-14T14:25:42.185Z,17.30
2023-05-14T14:28:09.086Z,17.30
2023-05-14T14:30:35.905Z,17.30
2023-05-14T14:33:03.117Z,17.30
2023-05-14T14:35:30.735Z,17.20
2023-05-14T14:37:57.591Z,17.00
2023-05-14T14:40:24.603Z,16.90
2023-05-14T14:42:51.382Z,16.80
2023-05-14T14:45:18.409Z,16.70
2023-05-14T14:47:46.468Z,16.70
2023-05-14T14:50:13.845Z,16.70
2023-05-14T14:52:45.761Z,16.60
2023-05-14T14:55:12.921Z,16.70
2023-05-14T14:57:39.768Z,16.70
2023-05-14T15:00:09.293Z,16.70
2023-05-14T15:02:38.421Z,16.80
2023-05-14T15:05:06.052Z,16.70
2023-05-14T15:07:33.017Z,16.70
2023-05-14T15:10:00.072Z,16.60
2023-05-14T15:12:26.878Z,16.70
2023-05-14T15:14:53.628Z,16.70
2023-05-14T15:17:20.405Z,16.80
2023-05-14T15:19:47.626Z,16.90
2023-05-14T15:22:14.480Z,16.90
2023-05-14T15:24:41.149Z,17.00
2023-05-14T15:27:07.846Z,17.20
2023-05-14T15:29:34.583Z,17.20
2023-05-14T15:32:01.799Z,17.20
2023-05-14T15:34:28.599Z,17.30
2023-05-14T15:36:55.359Z,17.00
2023-05-14T15:39:22.303Z,17.10
2023-05-14T15:41:49.238Z,17.30
2023-05-14T15:44:16.064Z,17.20
2023-05-14T15:46:42.846Z,17.00
2023-05-14T15:49:09.705Z,16.60
2023-05-14T15:51:36.583Z,16.40
2023-05-14T15:54:03.689Z,16.40
2023-05-14T15:56:31.315Z,16.40
2023-05-14T15:58:58.008Z,16.30
2023-05-14T16:01:25.024Z,16.30
2023-05-14T16:03:52.699Z,16.50
2023-05-14T16:06:19.632Z,16.70
2023-05-14T16:08:46.354Z,16.70
2023-05-14T16:11:13.052Z,16.70
2023-05-14T16:13:41.515Z,16.80
2023-05-14T16:16:08.478Z,16.90
2023-05-14T16:18:35.334Z,16.90
2023-05-14T16:21:02.196Z,16.90
2023-05-14T16:23:28.967Z,16.90
2023-05-14T16:25:55.812Z,16.90
2023-05-14T16:28:22.660Z,16.80
2023-05-14T16:30:49.475Z,16.70
2023-05-14T16:33:16.411Z,16.50
2023-05-14T16:35:43.427Z,16.50
2023-05-14T16:38:10.454Z,16.40
2023-05-14T16:40:37.191Z,16.30
2023-05-14T16:43:04.045Z,16.40
2023-05-14T16:45:32.710Z,16.50
2023-05-14T16:48:00.991Z,16.50
2023-05-14T16:50:28.086Z,16.40
2023-05-14T16:52:54.916Z,16.10
2023-05-14T16:55:21.982Z,15.70
2023-05-14T16:57:48.804Z,15.50
2023-05-14T17:00:16.039Z,15.30
2023-05-14T17:02:42.871Z,15.00
2023-05-14T17:05:09.969Z,14.70
2023-05-14T17:07:38.520Z,14.30
2023-05-14T17:10:06.879Z,14.30
2023-05-14T17:12:33.547Z,14.10
2023-05-14T17:15:02.942Z,13.90
2023-05-14T17:17:32.654Z,13.80
2023-05-14T17:20:00.196Z,13.70
2023-05-14T17:22:27.250Z,13.50
2023-05-14T17:24:53.928Z,13.30
2023-05-14T17:27:20.655Z,13.40
2023-05-14T17:29:49.315Z,13.10
2023-05-14T17:32:15.999Z,13.10
2023-05-14T17:34:42.845Z,13.00
2023-05-14T17:37:09.772Z,12.90
2023-05-14T17:39:36.564Z,12.80
2023-05-14T17:42:03.702Z,12.70
2023-05-14T17:44:30.533Z,12.70
2023-05-14T17:46:57.407Z,12.50
2023-05-14T17:49:24.123Z,12.20
2023-05-14T17:51:51.006Z,12.20
2023-05-14T17:54:17.685Z,12.10
2023-05-14T17:56:44.490Z,12.00
2023-05-14T17:59:11.340Z,12.10
2023-05-14T18:01:38.082Z,12.20
2023-05-14T18:04:05.073Z,12.30
2023-05-14T18:06:32.261Z,12.30
2023-05-14T18:08:58.995Z,12.30
2023-05-14T18:11:26.417Z,12.30
2023-05-14T18:13:53.131Z,12.20
2023-05-14T18:16:19.977Z,12.20
2023-05-14T18:18:46.808Z,12.30
2023-05-14T18:21:13.614Z,12.30
2023-05-14T18:23:40.385Z,12.30
2023-05-14T18:26:07.225Z,12.20
2023-05-14T18:28:34.011Z,12.20
2023-05-14T18:31:00.851Z,12.10
2023-05-14T18:33:27.864Z,12.20
2023-05-14T18:35:54.749Z,12.20
2023-05-14T18:38:21.448Z,12.30
2023-05-14T18:40:49.441Z,12.40
2023-05-14T18:43:18.432Z,12.40
2023-05-14T18:45:49.085Z,12.40
2023-05-14T18:48:16.390Z,12.50
2023-05-14T18:50:43.202Z,12.50
2023-05-14T18:53:09.898Z,12.60
2023-05-14T18:55:37.186Z,12.60
2023-05-14T18:58:03.998Z,12.70
2023-05-14T19:00:30.736Z,12.70
2023-05-14T19:02:57.622Z,12.70
2023-05-14T19:05:24.648Z,12.70
2023-05-14T19:07:51.644Z,12.70
2023-05-14T19:10:18.487Z,12.70
2023-05-14T19:12:46.842Z,12.70
2023-05-14T19:15:13.645Z,12.70
2023-05-14T19:17:40.538Z,12.70
2023-05-14T19:20:08.084Z,12.60
2023-05-14T19:22:34.891Z,12.70
2023-05-14T19:25:01.994Z,12.70
2023-05-14T19:27:28.889Z,12.50
2023-05-14T19:29:55.615Z,12.50
2023-05-14T19:32:22.737Z,12.50
2023-05-14T19:34:49.612Z,12.50
2023-05-14T19:37:18.178Z,12.50
2023-05-14T19:39:44.945Z,12.60
2023-05-14T19:42:11.716Z,12.60
2023-05-14T19:44:38.413Z,12.50
2023-05-14T19:47:05.585Z,12.60
2023-05-14T19:49:32.274Z,12.70
2023-05-14T19:51:58.958Z,12.70
2023-05-14T19:54:25.782Z,12.70
2023-05-14T19:56:52.574Z,12.70
2023-05-14T19:59:19.370Z,12.70
2023-05-14T20:01:46.179Z,12.70
2023-05-14T20:04:14.070Z,12.60
2023-05-14T20:06:41.623Z,12.70
2023-05-14T20:09:08.380Z,12.60
2023-05-14T20:11:35.218Z,12.70
2023-05-14T20:14:01.951Z,12.60
2023-05-14T20:16:28.798Z,12.60
2023-05-14T20:18:55.826Z,12.60
2023-05-14T20:21:22.692Z,12.60
2023-05-14T20:23:49.495Z,12.50
2023-05-14T20:26:16.285Z,12.50
2023-05-14T20:28:43.554Z,12.50
2023-05-14T20:31:10.338Z,12.40
2023-05-14T20:33:37.057Z,12.50
2023-05-14T20:36:05.114Z,12.40
2023-05-14T20:38:33.595Z,12.40
2023-05-14T20:41:00.313Z,12.40
2023-05-14T20:43:27.814Z,12.40
2023-05-14T20:45:58.244Z,12.40
2023-05-14T20:48:25.021Z,12.30
2023-05-14T20:50:51.744Z,12.30
2023-05-14T20:53:18.472Z,12.30
2023-05-14T20:55:45.296Z,12.20
2023-05-14T20:58:11.975Z,12.20
2023-05-14T21:00:39.328Z,12.10
2023-05-14T21:03:06.192Z,12.10
2023-05-14T21:05:33.129Z,12.20
2023-05-14T21:07:59.804Z,12.20
2023-05-14T21:10:26.637Z,12.20
2023-05-14T21:12:53.476Z,12.20
2023-05-14T21:15:20.646Z,12.20
2023-05-14T21:17:47.375Z,12.20
2023-05-14T21:20:15.535Z,12.20
2023-05-14T21:22:42.309Z,12.20
2023-05-14T21:25:09.386Z,12.20
2023-05-14T21:27:36.203Z,12.20
2023-05-14T21:30:03.224Z,12.20
2023-05-14T21:32:29.968Z,12.20
2023-05-14T21:34:56.783Z,12.10
2023-05-14T21:37:23.597Z,12.20
2023-05-14T21:39:50.895Z,12.20
2023-05-14T21:42:18.881Z,12.30
2023-05-14T21:44:45.603Z,12.30
2023-05-14T21:47:12.321Z,12.30
2023-05-14T21:49:39.013Z,12.30
2023-05-14T21:52:05.885Z,12.40
2023-05-14T21:54:32.563Z,12.30
2023-05-14T21:56:59.275Z,12.40
2023-05-14T21:59:26.009Z,12.40
2023-05-14T22:02:06.103Z,12.40
2023-05-14T22:04:33.525Z,12.40
2023-05-14T22:07:00.494Z,12.40
2023-05-14T22:09:27.363Z,12.50
2023-05-14T22:11:54.095Z,12.40
2023-05-14T22:14:20.903Z,12.40
2023-05-14T22:16:47.635Z,12.50
2023-05-14T22:19:16.405Z,12.50
2023-05-14T22:21:43.387Z,12.40
2023-05-14T22:24:10.066Z,12.40
2023-05-14T22:26:36.810Z,12.40
2023-05-14T22:29:03.468Z,12.40
2023-05-14T22:31:30.327Z,12.40
2023-05-14T22:33:57.098Z,12.40
2023-05-14T22:36:23.796Z,12.40
2023-05-14T22:38:50.458Z,12.50
2023-05-14T22:41:19.803Z,12.50
2023-05-14T22:43:48.657Z,12.50
2023-05-14T22:46:16.039Z,12.50
2023-05-14T22:48:42.806Z,12.60
2023-05-14T22:51:09.530Z,12.50
2023-05-14T22:53:36.335Z,12.50
2023-05-14T22:56:03.253Z,12.50
2023-05-14T22:58:29.992Z,12.50
2023-05-14T23:00:57.033Z,12.60
2023-05-14T23:03:23.706Z,12.50
2023-05-14T23:05:50.397Z,12.50
2023-05-14T23:08:17.108Z,12.40
2023-05-14T23:10:43.765Z,12.40
2023-05-14T23:13:10.427Z,12.30
2023-05-14T23:15:38.768Z,12.30
2023-05-14T23:18:05.753Z,12.30
2023-05-14T23:20:32.485Z,12.30
2023-05-14T23:22:59.195Z,12.30
2023-05-14T23:25:26.108Z,12.30
2023-05-14T23:27:52.982Z,12.30
2023-05-14T23:30:19.795Z,12.30
2023-05-14T23:32:46.459Z,12.30
2023-05-14T23:35:13.325Z,12.30
2023-05-14T23:37:46.869Z,12.30
2023-05-14T23:40:13.687Z,12.30
2023-05-14T23:42:40.349Z,12.30
2023-05-14T23:45:08.349Z,12.30
2023-05-14T23:47:35.417Z,12.30
2023-05-14T23:50:02.894Z,12.30
2023-05-14T23:52:29.604Z,12.30
2023-05-14T23:54:56.292Z,12.30
2023-05-14T23:57:23.083Z,12.20
2023-05-14T23:59:49.789Z,12.10
